Rigaud, Canada
Current Conditions -  °F | °C
As of 10:00 AM on Thursday 27 Nov 2014 (Local Time) from CYMX Reporting Station
Broken Clouds Broken Clouds  
Wind Chill: 21°   Ceiling: 25000
Heat Index: 27°   Visibility: 45mi
Dew Point: 14°   Wind: 5mph
Humidity: 59%   Direction: 110°ESE
Pressure: 30.06"   Gusts: NA
Location:  45.47°N, 74.3°W
Report Text: CYMX 271500Z 11004KT 050V130 45SM FEW028 SCT033 BKN250 M03/M10 A3006 RMK CF1SC4CI2 CF TR SLP184
Loading
Personal Weather Stations






























Interactive Weather Map New forecast layout! Learn more

10-Day Weather Forecast

Advertisements
Track Severe Weather on mobile